createdAt,value
2018-06-04T00:00:30.633Z,18.61
2018-06-04T00:03:00.377Z,18.64
2018-06-04T00:05:30.148Z,18.68
2018-06-04T00:07:59.900Z,18.73
2018-06-04T00:10:29.635Z,18.73
2018-06-04T00:12:59.369Z,18.68
2018-06-04T00:15:29.176Z,18.65
2018-06-04T00:17:58.994Z,18.68
2018-06-04T00:20:28.917Z,18.62
2018-06-04T00:22:58.737Z,18.61
2018-06-04T00:25:28.609Z,18.58
2018-06-04T00:27:58.363Z,18.57
2018-06-04T00:30:28.153Z,18.58
2018-06-04T00:32:57.945Z,18.58
2018-06-04T00:35:27.663Z,18.59
2018-06-04T00:37:57.456Z,18.60
2018-06-04T00:40:27.190Z,18.61
2018-06-04T00:42:56.919Z,18.62
2018-06-04T00:45:26.696Z,18.62
2018-06-04T00:47:56.458Z,18.62
2018-06-04T00:50:26.224Z,18.64
2018-06-04T00:52:56.048Z,18.64
2018-06-04T00:55:25.774Z,18.65
2018-06-04T00:57:55.540Z,18.71
2018-06-04T01:00:25.314Z,18.71
2018-06-04T01:02:55.133Z,18.66
2018-06-04T01:05:24.908Z,18.65
2018-06-04T01:07:54.734Z,18.64
2018-06-04T01:10:24.529Z,18.63
2018-06-04T01:12:54.318Z,18.62
2018-06-04T01:15:24.027Z,18.65
2018-06-04T01:17:53.796Z,18.73
2018-06-04T01:20:23.522Z,18.77
2018-06-04T01:22:53.278Z,18.77
2018-06-04T01:25:23.063Z,18.80
2018-06-04T01:27:52.832Z,18.77
2018-06-04T01:30:22.598Z,18.74
2018-06-04T01:32:52.325Z,18.71
2018-06-04T01:35:22.092Z,18.69
2018-06-04T01:37:51.840Z,18.71
2018-06-04T01:40:21.704Z,18.75
2018-06-04T01:42:51.452Z,18.77
2018-06-04T01:45:21.366Z,18.80
2018-06-04T01:47:51.168Z,18.82
2018-06-04T01:50:20.946Z,18.84
2018-06-04T01:52:50.713Z,18.79
2018-06-04T01:55:20.464Z,18.86
2018-06-04T01:57:50.247Z,18.85
2018-06-04T02:00:20.008Z,18.81
2018-06-04T02:02:49.803Z,18.84
2018-06-04T02:05:19.613Z,18.79
2018-06-04T02:07:49.486Z,18.79
2018-06-04T02:10:19.272Z,18.82
2018-06-04T02:12:48.994Z,18.73
2018-06-04T02:15:18.759Z,18.65
2018-06-04T02:17:48.527Z,18.65
2018-06-04T02:20:18.500Z,18.68
2018-06-04T02:22:48.265Z,18.64
2018-06-04T02:25:18.077Z,18.67
2018-06-04T02:27:47.852Z,18.62
2018-06-04T02:30:18.321Z,18.64
2018-06-04T02:32:49.937Z,18.66
2018-06-04T02:35:21.072Z,18.63
2018-06-04T02:37:51.107Z,18.62
2018-06-04T02:40:21.181Z,18.58
2018-06-04T02:42:53.309Z,18.63
2018-06-04T02:45:24.022Z,18.61
2018-06-04T02:47:54.496Z,18.57
2018-06-04T02:50:24.585Z,18.59
2018-06-04T02:52:54.683Z,18.57
2018-06-04T02:55:25.438Z,18.55
2018-06-04T02:57:55.247Z,18.53
2018-06-04T03:00:26.104Z,18.59
2018-06-04T03:02:57.876Z,18.55
2018-06-04T03:05:31.616Z,18.54
2018-06-04T03:08:01.397Z,18.52
2018-06-04T03:10:31.136Z,18.48
2018-06-04T03:13:00.986Z,18.46
2018-06-04T03:15:30.703Z,18.40
2018-06-04T03:18:00.631Z,18.42
2018-06-04T03:20:30.672Z,18.41
2018-06-04T03:23:01.050Z,18.42
2018-06-04T03:25:31.239Z,18.45
2018-06-04T03:28:01.192Z,18.50
2018-06-04T03:30:31.757Z,18.42
2018-06-04T03:33:03.119Z,18.36
2018-06-04T03:35:33.744Z,18.43
2018-06-04T03:38:03.489Z,18.38
2018-06-04T03:40:33.363Z,18.45
2018-06-04T03:43:03.123Z,18.53
2018-06-04T03:45:33.744Z,18.55
2018-06-04T03:48:03.624Z,18.50
2018-06-04T03:50:33.534Z,18.52
2018-06-04T03:53:04.451Z,18.55
2018-06-04T03:55:34.224Z,18.60
2018-06-04T03:58:04.555Z,18.60
2018-06-04T04:00:36.866Z,18.57
2018-06-04T04:03:09.874Z,18.61
2018-06-04T04:05:40.234Z,18.60
2018-06-04T04:08:10.816Z,18.59
2018-06-04T04:10:42.687Z,18.61
2018-06-04T04:13:13.718Z,18.67
2018-06-04T04:15:46.455Z,18.74
2018-06-04T04:18:19.978Z,18.81
2018-06-04T04:20:52.506Z,18.81
2018-06-04T04:23:22.382Z,18.85
2018-06-04T04:25:53.064Z,18.97
2018-06-04T04:28:24.605Z,19.04
2018-06-04T04:30:56.881Z,19.05
2018-06-04T04:33:28.213Z,19.17
2018-06-04T04:35:59.979Z,19.26
2018-06-04T04:38:31.609Z,19.29
2018-06-04T04:41:02.487Z,19.36
2018-06-04T04:43:45.790Z,19.35
2018-06-04T04:46:18.370Z,19.42
2018-06-04T04:48:49.646Z,19.61
2018-06-04T04:51:21.077Z,19.49
2018-06-04T04:54:04.032Z,19.47
2018-06-04T04:56:34.960Z,19.72
2018-06-04T04:59:07.202Z,19.65
2018-06-04T05:01:37.069Z,19.81
2018-06-04T05:04:06.922Z,19.76
2018-06-04T05:06:39.763Z,19.94
2018-06-04T05:09:11.090Z,20.14
2018-06-04T05:11:42.116Z,20.14
2018-06-04T05:14:12.350Z,20.19
2018-06-04T05:16:43.814Z,20.17
2018-06-04T05:19:15.477Z,20.17
2018-06-04T05:21:45.230Z,20.27
2018-06-04T05:24:15.007Z,20.31
2018-06-04T05:26:44.757Z,20.42
2018-06-04T05:29:14.542Z,20.33
2018-06-04T05:31:46.722Z,20.34
2018-06-04T05:34:17.847Z,20.38
2018-06-04T05:36:47.715Z,20.43
2018-06-04T05:39:17.595Z,20.59
2018-06-04T05:41:47.333Z,20.75
2018-06-04T05:44:17.217Z,20.64
2018-06-04T05:46:47.019Z,20.59
2018-06-04T05:49:16.766Z,20.95
2018-06-04T05:51:46.476Z,21.08
2018-06-04T05:54:16.182Z,21.06
2018-06-04T05:56:45.954Z,21.03
2018-06-04T05:59:15.653Z,20.61
2018-06-04T06:01:45.504Z,20.41
2018-06-04T06:04:15.154Z,20.47
2018-06-04T06:06:44.926Z,20.43
2018-06-04T06:09:14.865Z,20.70
2018-06-04T06:11:44.634Z,21.05
2018-06-04T06:14:14.485Z,21.34
2018-06-04T06:16:44.426Z,21.81
2018-06-04T06:19:14.352Z,22.02
2018-06-04T06:21:45.799Z,22.43
2018-06-04T06:24:15.654Z,22.81
2018-06-04T06:26:45.479Z,22.87
2018-06-04T06:29:15.278Z,23.38
2018-06-04T06:31:45.014Z,23.03
2018-06-04T06:34:14.760Z,23.19
2018-06-04T06:36:44.464Z,23.05
2018-06-04T06:39:14.630Z,22.46
2018-06-04T06:41:44.372Z,21.94
2018-06-04T06:44:14.294Z,22.07
2018-06-04T06:46:44.050Z,21.28
2018-06-04T06:49:13.809Z,21.79
2018-06-04T06:51:43.540Z,22.16
2018-06-04T06:54:13.334Z,22.25
2018-06-04T06:56:43.121Z,22.48
2018-06-04T06:59:12.857Z,23.15
2018-06-04T07:01:42.636Z,23.01
2018-06-04T07:04:12.345Z,22.56
2018-06-04T07:06:42.121Z,21.46
2018-06-04T07:09:11.929Z,21.61
2018-06-04T07:11:41.666Z,21.49
2018-06-04T07:14:11.431Z,21.52
2018-06-04T07:16:41.151Z,21.93
2018-06-04T07:19:10.905Z,21.96
2018-06-04T07:21:40.655Z,22.86
2018-06-04T07:24:10.389Z,22.81
2018-06-04T07:26:40.195Z,22.41
2018-06-04T07:29:10.010Z,22.88
2018-06-04T07:31:39.813Z,23.41
2018-06-04T07:34:09.551Z,23.48
2018-06-04T07:36:39.325Z,23.02
2018-06-04T07:39:09.589Z,22.66
2018-06-04T07:41:39.334Z,23.11
2018-06-04T07:44:09.044Z,23.72
2018-06-04T07:46:38.751Z,23.21
2018-06-04T07:49:08.498Z,23.06
2018-06-04T07:51:38.245Z,23.72
2018-06-04T07:54:07.961Z,24.25
2018-06-04T07:56:37.696Z,24.31
2018-06-04T07:59:07.410Z,24.59
2018-06-04T08:01:37.225Z,25.26
2018-06-04T08:04:06.964Z,26.07
2018-06-04T08:06:36.725Z,26.58
2018-06-04T08:09:08.425Z,26.74
2018-06-04T08:11:38.179Z,25.26
2018-06-04T08:14:07.983Z,26.75
2018-06-04T08:16:37.739Z,27.41
2018-06-04T08:19:07.453Z,26.95
2018-06-04T08:21:37.241Z,26.23
2018-06-04T08:24:07.013Z,26.00
2018-06-04T08:26:36.812Z,25.67
2018-06-04T08:29:06.687Z,25.15
2018-06-04T08:31:36.453Z,24.75
2018-06-04T08:34:06.301Z,24.51
2018-06-04T08:36:36.056Z,24.31
2018-06-04T08:39:09.069Z,24.25
2018-06-04T08:41:38.820Z,24.13
2018-06-04T08:44:08.675Z,24.15
2018-06-04T08:46:38.399Z,24.20
2018-06-04T08:49:08.171Z,23.98
2018-06-04T08:51:37.917Z,24.08
2018-06-04T08:54:07.726Z,24.14
2018-06-04T08:56:37.503Z,24.40
2018-06-04T08:59:07.307Z,24.59
2018-06-04T09:01:37.115Z,24.62
2018-06-04T09:04:06.869Z,24.70
2018-06-04T09:06:36.592Z,24.22
2018-06-04T09:09:08.100Z,23.88
2018-06-04T09:11:37.816Z,24.57
2018-06-04T09:14:07.649Z,24.83
2018-06-04T09:16:37.384Z,24.66
2018-06-04T09:19:07.248Z,25.02
2018-06-04T09:21:37.287Z,25.17
2018-06-04T09:24:07.031Z,24.43
2018-06-04T09:26:36.794Z,24.23
2018-06-04T09:29:06.580Z,24.91
2018-06-04T09:31:36.292Z,24.85
2018-06-04T09:34:06.092Z,25.13
2018-06-04T09:36:35.872Z,25.54
2018-06-04T09:39:07.778Z,25.03
2018-06-04T09:41:37.505Z,25.43
2018-06-04T09:44:07.364Z,25.67
2018-06-04T09:46:37.123Z,26.13
2018-06-04T09:49:07.044Z,26.14
2018-06-04T09:51:36.824Z,26.54
2018-06-04T09:54:06.578Z,26.76
2018-06-04T09:56:36.260Z,26.94
2018-06-04T09:59:06.120Z,26.99
2018-06-04T10:01:35.895Z,26.84
2018-06-04T10:04:05.704Z,26.92
2018-06-04T10:06:35.471Z,27.14
2018-06-04T10:09:08.070Z,27.09
2018-06-04T10:11:37.849Z,27.46
2018-06-04T10:14:07.652Z,26.85
2018-06-04T10:16:37.494Z,27.33
2018-06-04T10:19:07.308Z,28.22
2018-06-04T10:21:37.038Z,28.34
2018-06-04T10:24:06.988Z,28.67
2018-06-04T10:26:36.775Z,26.43
2018-06-04T10:29:06.521Z,24.88
2018-06-04T10:31:36.245Z,25.65
2018-06-04T10:34:06.121Z,26.72
2018-06-04T10:36:35.869Z,26.73
2018-06-04T10:39:07.625Z,27.65
2018-06-04T10:41:37.455Z,27.34
2018-06-04T10:44:07.200Z,26.79
2018-06-04T10:46:36.940Z,27.09
2018-06-04T10:49:06.694Z,27.43
2018-06-04T10:51:36.430Z,27.46
2018-06-04T10:54:06.218Z,28.46
2018-06-04T10:56:35.983Z,28.56
2018-06-04T10:59:05.816Z,27.36
2018-06-04T11:01:35.551Z,28.41
2018-06-04T11:04:05.335Z,29.25
2018-06-04T11:06:35.043Z,29.71
2018-06-04T11:09:07.722Z,30.12
2018-06-04T11:11:37.442Z,29.83
2018-06-04T11:14:07.203Z,28.70
2018-06-04T11:16:36.923Z,28.25
2018-06-04T11:19:06.770Z,28.02
2018-06-04T11:21:36.492Z,28.10
2018-06-04T11:24:06.212Z,28.36
2018-06-04T11:26:35.982Z,28.26
2018-06-04T11:29:06.136Z,28.70
2018-06-04T11:31:35.935Z,28.56
2018-06-04T11:34:05.779Z,27.73
2018-06-04T11:36:35.596Z,27.73
2018-06-04T11:39:07.321Z,28.27
2018-06-04T11:41:37.071Z,28.59
2018-06-04T11:44:06.847Z,27.72
2018-06-04T11:46:36.647Z,28.05
2018-06-04T11:49:06.470Z,28.23
2018-06-04T11:51:36.274Z,28.27
2018-06-04T11:54:06.027Z,28.09
2018-06-04T11:56:35.846Z,27.79
2018-06-04T11:59:05.583Z,27.65
2018-06-04T12:01:35.292Z,28.00
2018-06-04T12:04:05.004Z,26.95
2018-06-04T12:06:34.769Z,27.25
2018-06-04T12:09:06.543Z,27.58
2018-06-04T12:11:36.742Z,28.15
2018-06-04T12:14:06.503Z,28.22
2018-06-04T12:16:36.310Z,28.14
2018-06-04T12:19:06.049Z,28.41
2018-06-04T12:21:35.808Z,28.83
2018-06-04T12:24:05.611Z,28.10
2018-06-04T12:26:35.331Z,27.55
2018-06-04T12:29:05.111Z,27.56
2018-06-04T12:31:34.841Z,27.54
2018-06-04T12:34:04.603Z,27.35
2018-06-04T12:36:34.338Z,26.58
2018-06-04T12:39:04.419Z,26.88
2018-06-04T12:41:34.172Z,26.89
2018-06-04T12:44:04.019Z,26.92
2018-06-04T12:46:33.723Z,27.11
2018-06-04T12:49:03.539Z,27.01
2018-06-04T12:51:34.222Z,26.92
2018-06-04T12:54:03.950Z,27.23
2018-06-04T12:56:33.696Z,27.24
2018-06-04T12:59:03.464Z,27.70
2018-06-04T13:01:33.193Z,27.71
2018-06-04T13:04:02.983Z,26.66
2018-06-04T13:06:32.694Z,27.51
2018-06-04T13:09:02.465Z,27.95
2018-06-04T13:11:32.230Z,27.81
2018-06-04T13:14:02.032Z,27.72
2018-06-04T13:16:31.852Z,27.52
2018-06-04T13:19:01.616Z,27.54
2018-06-04T13:21:31.404Z,27.62
2018-06-04T13:24:01.122Z,27.83
2018-06-04T13:26:31.518Z,28.03
2018-06-04T13:29:01.335Z,28.14
2018-06-04T13:31:31.198Z,28.01
2018-06-04T13:34:00.974Z,28.14
2018-06-04T13:36:30.774Z,28.19
2018-06-04T13:39:00.491Z,28.17
2018-06-04T13:41:30.245Z,28.12
2018-06-04T13:43:59.990Z,27.73
2018-06-04T13:46:29.703Z,27.99
2018-06-04T13:48:59.495Z,28.13
2018-06-04T13:51:29.377Z,28.14
2018-06-04T13:53:59.286Z,28.22
2018-06-04T13:56:29.090Z,28.54
2018-06-04T13:58:58.882Z,29.21
2018-06-04T14:01:28.738Z,28.93
2018-06-04T14:03:58.525Z,28.39
2018-06-04T14:06:28.393Z,28.32
2018-06-04T14:08:58.130Z,28.36
2018-06-04T14:11:27.926Z,28.40
2018-06-04T14:13:57.705Z,27.92
2018-06-04T14:16:27.454Z,27.63
2018-06-04T14:18:57.208Z,27.59
2018-06-04T14:21:26.946Z,27.47
2018-06-04T14:23:56.654Z,27.41
2018-06-04T14:26:26.411Z,27.35
2018-06-04T14:28:56.128Z,27.61
2018-06-04T14:31:25.933Z,28.22
2018-06-04T14:33:55.728Z,28.52
2018-06-04T14:36:25.438Z,28.50
2018-06-04T14:38:55.184Z,28.52
2018-06-04T14:41:24.932Z,28.50
2018-06-04T14:43:54.707Z,27.98
2018-06-04T14:46:25.856Z,28.21
2018-06-04T14:48:55.642Z,27.82
2018-06-04T14:51:25.398Z,27.63
2018-06-04T14:53:55.193Z,27.24
2018-06-04T14:56:24.926Z,27.23
2018-06-04T14:58:54.702Z,27.09
2018-06-04T15:01:24.460Z,27.24
2018-06-04T15:03:54.250Z,27.33
2018-06-04T15:06:23.995Z,27.29
2018-06-04T15:08:53.761Z,27.37
2018-06-04T15:11:23.617Z,27.28
2018-06-04T15:13:53.302Z,27.26
2018-06-04T15:16:23.153Z,27.22
2018-06-04T15:18:52.974Z,27.44
2018-06-04T15:21:22.773Z,27.52
2018-06-04T15:23:52.529Z,27.01
2018-06-04T15:26:22.382Z,27.49
2018-06-04T15:28:52.135Z,27.47
2018-06-04T15:31:22.010Z,27.47
2018-06-04T15:33:51.866Z,27.52
2018-06-04T15:36:21.685Z,27.42
2018-06-04T15:38:51.445Z,27.55
2018-06-04T15:41:21.273Z,27.40
2018-06-04T15:43:51.034Z,27.39
2018-06-04T15:46:20.982Z,27.57
2018-06-04T15:48:50.785Z,27.70
2018-06-04T15:51:20.524Z,27.57
2018-06-04T15:53:50.954Z,27.34
2018-06-04T15:56:20.708Z,27.33
2018-06-04T15:58:50.570Z,27.10
2018-06-04T16:01:20.307Z,27.63
2018-06-04T16:03:50.044Z,27.88
2018-06-04T16:06:19.769Z,28.08
2018-06-04T16:08:49.531Z,28.18
2018-06-04T16:11:19.346Z,28.21
2018-06-04T16:13:50.352Z,28.19
2018-06-04T16:16:20.113Z,28.12
2018-06-04T16:18:50.788Z,27.99
2018-06-04T16:21:20.544Z,27.89
2018-06-04T16:23:50.356Z,27.90
2018-06-04T16:26:20.077Z,27.86
2018-06-04T16:28:49.864Z,28.03
2018-06-04T16:31:19.723Z,27.99
2018-06-04T16:33:49.538Z,28.25
2018-06-04T16:36:19.323Z,28.39
2018-06-04T16:38:49.079Z,28.26
2018-06-04T16:41:19.080Z,28.31
2018-06-04T16:43:48.764Z,28.45
2018-06-04T16:46:18.836Z,28.53
2018-06-04T16:48:48.637Z,28.73
2018-06-04T16:51:18.443Z,28.85
2018-06-04T16:53:48.185Z,28.80
2018-06-04T16:56:17.964Z,28.93
2018-06-04T16:58:47.740Z,28.42
2018-06-04T17:01:17.477Z,28.74
2018-06-04T17:03:48.156Z,28.68
2018-06-04T17:06:17.924Z,28.68
2018-06-04T17:08:47.711Z,28.41
2018-06-04T17:11:17.517Z,28.64
2018-06-04T17:13:47.239Z,28.72
2018-06-04T17:16:17.065Z,28.10
2018-06-04T17:18:46.795Z,28.57
2018-06-04T17:21:16.580Z,28.55
2018-06-04T17:23:46.332Z,28.69
2018-06-04T17:26:16.168Z,28.78
2018-06-04T17:28:45.877Z,28.06
2018-06-04T17:31:15.688Z,28.09
2018-06-04T17:33:45.478Z,28.51
2018-06-04T17:36:15.916Z,28.88
2018-06-04T17:38:45.679Z,28.71
2018-06-04T17:41:15.644Z,28.71
2018-06-04T17:43:46.174Z,28.94
2018-06-04T17:46:16.144Z,28.92
2018-06-04T17:48:46.628Z,29.32
2018-06-04T17:51:17.295Z,29.17
2018-06-04T17:53:47.129Z,29.10
2018-06-04T17:56:16.986Z,28.23
2018-06-04T17:58:46.730Z,27.78
2018-06-04T18:01:18.343Z,28.49
2018-06-04T18:03:48.179Z,28.40
2018-06-04T18:06:18.029Z,28.56
2018-06-04T18:08:47.968Z,28.38
2018-06-04T18:11:17.706Z,27.78
2018-06-04T18:13:47.509Z,27.59
2018-06-04T18:16:17.303Z,27.16
2018-06-04T18:18:47.128Z,26.52
2018-06-04T18:21:16.883Z,26.06
2018-06-04T18:23:46.717Z,25.96
2018-06-04T18:26:16.564Z,25.90
2018-06-04T18:28:46.307Z,25.68
2018-06-04T18:31:16.976Z,25.43
2018-06-04T18:33:47.657Z,25.19
2018-06-04T18:36:17.580Z,25.04
2018-06-04T18:38:49.627Z,25.08
2018-06-04T18:41:20.287Z,25.09
2018-06-04T18:43:55.538Z,24.92
2018-06-04T18:46:26.413Z,24.87
2018-06-04T18:48:56.186Z,24.70
2018-06-04T18:51:26.008Z,24.55
2018-06-04T18:53:55.957Z,24.34
2018-06-04T18:56:25.797Z,24.29
2018-06-04T18:58:55.733Z,24.11
2018-06-04T19:01:25.611Z,24.06
2018-06-04T19:03:57.875Z,23.76
2018-06-04T19:06:31.027Z,23.71
2018-06-04T19:09:02.814Z,23.65
2018-06-04T19:11:34.993Z,23.49
2018-06-04T19:14:06.318Z,23.50
2018-06-04T19:16:37.139Z,23.44
2018-06-04T19:19:09.665Z,23.24
2018-06-04T19:21:41.779Z,23.03
2018-06-04T19:24:12.360Z,22.68
2018-06-04T19:26:45.051Z,22.41
2018-06-04T19:29:15.344Z,22.14
2018-06-04T19:31:45.497Z,21.93
2018-06-04T19:34:15.470Z,21.75
2018-06-04T19:36:46.284Z,21.67
2018-06-04T19:39:16.860Z,21.73
2018-06-04T19:41:47.065Z,21.70
2018-06-04T19:44:17.218Z,21.64
2018-06-04T19:46:47.809Z,21.48
2018-06-04T19:49:19.055Z,21.36
2018-06-04T19:51:49.369Z,21.22
2018-06-04T19:54:19.370Z,21.19
2018-06-04T19:56:49.515Z,21.23
2018-06-04T19:59:20.279Z,21.32
2018-06-04T20:01:50.423Z,21.34
2018-06-04T20:04:20.499Z,21.36
2018-06-04T20:06:50.471Z,21.45
2018-06-04T20:09:20.645Z,21.44
2018-06-04T20:11:51.969Z,21.38
2018-06-04T20:14:21.956Z,21.33
2018-06-04T20:16:53.405Z,21.23
2018-06-04T20:19:25.193Z,21.16
2018-06-04T20:21:55.183Z,21.00
2018-06-04T20:24:27.216Z,20.81
2018-06-04T20:27:01.075Z,20.60
2018-06-04T20:29:34.097Z,20.43
2018-06-04T20:32:04.029Z,20.31
2018-06-04T20:34:34.357Z,20.18
2018-06-04T20:37:04.307Z,20.05
2018-06-04T20:39:34.322Z,19.96
2018-06-04T20:42:05.772Z,19.89
2018-06-04T20:44:35.889Z,19.78
2018-06-04T20:47:05.844Z,19.69
2018-06-04T20:49:35.958Z,19.57
2018-06-04T20:52:05.910Z,19.51
2018-06-04T20:54:36.818Z,19.42
2018-06-04T20:57:08.788Z,19.38
2018-06-04T20:59:39.806Z,19.38
2018-06-04T21:02:10.679Z,19.33
2018-06-04T21:04:40.518Z,19.30
2018-06-04T21:07:12.416Z,19.29
2018-06-04T21:09:44.218Z,19.20
2018-06-04T21:12:14.098Z,19.19
2018-06-04T21:14:45.267Z,19.23
2018-06-04T21:17:18.538Z,19.18
2018-06-04T21:19:50.663Z,19.13
2018-06-04T21:22:27.032Z,19.09
2018-06-04T21:25:01.185Z,19.04
2018-06-04T21:27:34.342Z,18.99
2018-06-04T21:30:04.126Z,18.93
2018-06-04T21:32:34.022Z,18.82
2018-06-04T21:35:03.918Z,18.73
2018-06-04T21:37:34.265Z,18.69
2018-06-04T21:40:05.734Z,18.67
2018-06-04T21:42:36.654Z,18.65
2018-06-04T21:45:08.950Z,18.62
2018-06-04T21:47:40.656Z,18.58
2018-06-04T21:50:11.068Z,18.56
2018-06-04T21:52:40.804Z,18.58
2018-06-04T21:55:10.690Z,18.64
2018-06-04T21:57:40.918Z,18.72
2018-06-04T22:00:12.713Z,18.74
2018-06-04T22:02:43.217Z,18.77
2018-06-04T22:05:13.784Z,18.83
2018-06-04T22:07:45.709Z,18.77
2018-06-04T22:10:16.352Z,18.68
2018-06-04T22:12:46.434Z,18.66
2018-06-04T22:15:17.880Z,18.58
2018-06-04T22:17:48.546Z,18.47
2018-06-04T22:20:18.934Z,18.37
2018-06-04T22:22:50.226Z,18.39
2018-06-04T22:25:20.917Z,18.47
2018-06-04T22:27:51.476Z,18.62
2018-06-04T22:30:24.093Z,18.57
2018-06-04T22:32:53.944Z,18.65
2018-06-04T22:35:23.916Z,18.70
2018-06-04T22:37:54.473Z,18.78
2018-06-04T22:40:24.366Z,18.78
2018-06-04T22:42:54.213Z,18.75
2018-06-04T22:45:24.250Z,18.76
2018-06-04T22:47:56.297Z,18.82
2018-06-04T22:50:26.405Z,18.79
2018-06-04T22:52:56.898Z,18.70
2018-06-04T22:55:26.877Z,18.60
2018-06-04T22:57:56.653Z,18.62
2018-06-04T23:00:34.893Z,18.65
2018-06-04T23:03:04.890Z,18.65
2018-06-04T23:05:35.162Z,18.69
2018-06-04T23:08:05.193Z,18.62
2018-06-04T23:10:35.150Z,18.60
2018-06-04T23:13:05.046Z,18.53
2018-06-04T23:15:35.541Z,18.44
2018-06-04T23:18:05.508Z,18.37
2018-06-04T23:20:37.258Z,18.32
2018-06-04T23:23:08.421Z,18.30
2018-06-04T23:25:40.851Z,18.26
2018-06-04T23:28:12.543Z,18.27
2018-06-04T23:30:45.269Z,18.26
2018-06-04T23:33:17.635Z,18.33
2018-06-04T23:35:47.541Z,18.26
2018-06-04T23:38:17.269Z,18.23
2018-06-04T23:40:48.022Z,18.15
2018-06-04T23:43:18.209Z,18.05
2018-06-04T23:45:50.953Z,17.94
2018-06-04T23:48:22.955Z,17.88
2018-06-04T23:50:55.009Z,17.81
2018-06-04T23:53:26.237Z,17.75
2018-06-04T23:55:55.969Z,17.70
2018-06-04T23:58:25.774Z,17.75
